sensor_id;sensor_type;location;lat;lon;timestamp;pressure;altitude;pressure_sealevel;temperature;humidity
36834;BME280;48003;52.084;5.224;2023-04-08T00:00:30;102336.0;;;11.64;82.98
36834;BME280;48003;52.084;5.224;2023-04-08T00:02:06;102341.0;;;11.61;83.05
36834;BME280;48003;52.084;5.224;2023-04-08T00:05:19;102342.0;;;11.6;83.18
36834;BME280;48003;52.084;5.224;2023-04-08T00:06:55;102339.0;;;11.57;83.34
36834;BME280;48003;52.084;5.224;2023-04-08T00:08:31;102338.0;;;11.59;83.31
36834;BME280;48003;52.084;5.224;2023-04-08T00:11:44;102337.0;;;11.56;83.32
36834;BME280;48003;52.084;5.224;2023-04-08T00:13:20;102338.0;;;11.54;83.55
36834;BME280;48003;52.084;5.224;2023-04-08T00:14:56;102342.0;;;11.6;83.33
36834;BME280;48003;52.084;5.224;2023-04-08T00:18:08;102345.0;;;11.59;83.34
36834;BME280;48003;52.084;5.224;2023-04-08T00:19:45;102339.0;;;11.53;83.49
36834;BME280;48003;52.084;5.224;2023-04-08T00:21:21;102338.0;;;11.5;83.35
36834;BME280;48003;52.084;5.224;2023-04-08T00:22:58;102340.0;;;11.47;83.22
36834;BME280;48003;52.084;5.224;2023-04-08T00:26:10;102340.0;;;11.48;82.9
36834;BME280;48003;52.084;5.224;2023-04-08T00:27:46;102340.0;;;11.48;82.89
36834;BME280;48003;52.084;5.224;2023-04-08T00:29:22;102338.0;;;11.48;82.88
36834;BME280;48003;52.084;5.224;2023-04-08T00:32:35;102335.0;;;11.5;82.73
36834;BME280;48003;52.084;5.224;2023-04-08T00:34:11;102333.0;;;11.46;83.25
36834;BME280;48003;52.084;5.224;2023-04-08T00:35:47;102332.0;;;11.46;83.09
36834;BME280;48003;52.084;5.224;2023-04-08T00:38:59;102336.0;;;11.47;82.83
36834;BME280;48003;52.084;5.224;2023-04-08T00:40:35;102335.0;;;11.46;82.81
36834;BME280;48003;52.084;5.224;2023-04-08T00:42:11;102339.0;;;11.37;82.97
36834;BME280;48003;52.084;5.224;2023-04-08T00:45:24;102341.0;;;11.41;82.95
36834;BME280;48003;52.084;5.224;2023-04-08T00:47:02;102342.0;;;11.39;83.02
36834;BME280;48003;52.084;5.224;2023-04-08T00:48:39;102346.0;;;11.36;83.19
36834;BME280;48003;52.084;5.224;2023-04-08T00:50:15;102345.0;;;11.33;83.46
36834;BME280;48003;52.084;5.224;2023-04-08T00:53:30;102340.0;;;11.25;84.21
36834;BME280;48003;52.084;5.224;2023-04-08T00:55:06;102341.0;;;11.22;84.28
36834;BME280;48003;52.084;5.224;2023-04-08T00:56:42;102340.0;;;11.2;84.69
36834;BME280;48003;52.084;5.224;2023-04-08T00:59:56;102341.0;;;11.19;84.58
36834;BME280;48003;52.084;5.224;2023-04-08T01:01:39;102343.0;;;11.21;84.16
36834;BME280;48003;52.084;5.224;2023-04-08T01:03:24;102341.0;;;11.18;84.13
36834;BME280;48003;52.084;5.224;2023-04-08T01:05:13;102345.0;;;11.22;83.61
36834;BME280;48003;52.084;5.224;2023-04-08T01:06:55;102343.0;;;11.18;83.77
36834;BME280;48003;52.084;5.224;2023-04-08T01:10:17;102346.0;;;11.11;84.15
36834;BME280;48003;52.084;5.224;2023-04-08T01:12:06;102348.0;;;11.09;84.28
36834;BME280;48003;52.084;5.224;2023-04-08T01:13:44;102350.0;;;11.07;84.6
36834;BME280;48003;52.084;5.224;2023-04-08T01:15:22;102350.0;;;11.06;84.81
36834;BME280;48003;52.084;5.224;2023-04-08T01:18:37;102351.0;;;11.08;84.24
36834;BME280;48003;52.084;5.224;2023-04-08T01:20:15;102351.0;;;11.06;84.83
36834;BME280;48003;52.084;5.224;2023-04-08T01:21:53;102352.0;;;11.07;84.63
36834;BME280;48003;52.084;5.224;2023-04-08T01:23:40;102350.0;;;11.07;84.81
36834;BME280;48003;52.084;5.224;2023-04-08T01:26:59;102355.0;;;11.07;84.39
36834;BME280;48003;52.084;5.224;2023-04-08T01:28:38;102355.0;;;11.06;84.14
36834;BME280;48003;52.084;5.224;2023-04-08T01:30:17;102357.0;;;11.01;84.21
36834;BME280;48003;52.084;5.224;2023-04-08T01:33:31;102356.0;;;10.99;84.15
36834;BME280;48003;52.084;5.224;2023-04-08T01:35:09;102360.0;;;10.96;84.88
36834;BME280;48003;52.084;5.224;2023-04-08T01:36:46;102363.0;;;10.98;84.41
36834;BME280;48003;52.084;5.224;2023-04-08T01:38:24;102362.0;;;10.96;84.29
36834;BME280;48003;52.084;5.224;2023-04-08T01:41:38;102365.0;;;10.93;84.11
36834;BME280;48003;52.084;5.224;2023-04-08T01:43:16;102364.0;;;10.93;84.15
36834;BME280;48003;52.084;5.224;2023-04-08T01:44:54;102364.0;;;10.89;84.34
36834;BME280;48003;52.084;5.224;2023-04-08T01:48:12;102361.0;;;10.88;84.81
36834;BME280;48003;52.084;5.224;2023-04-08T01:49:49;102364.0;;;10.85;85.46
36834;BME280;48003;52.084;5.224;2023-04-08T01:51:28;102366.0;;;10.83;85.65
36834;BME280;48003;52.084;5.224;2023-04-08T01:53:07;102366.0;;;10.81;85.78
36834;BME280;48003;52.084;5.224;2023-04-08T01:56:21;102365.0;;;10.82;85.88
36834;BME280;48003;52.084;5.224;2023-04-08T01:57:59;102362.0;;;10.8;86.02
36834;BME280;48003;52.084;5.224;2023-04-08T01:59:37;102364.0;;;10.82;86.07
36834;BME280;48003;52.084;5.224;2023-04-08T02:01:17;102365.0;;;10.78;86.09
36834;BME280;48003;52.084;5.224;2023-04-08T02:04:35;102363.0;;;10.77;86.19
36834;BME280;48003;52.084;5.224;2023-04-08T02:06:11;102365.0;;;10.77;86.26
36834;BME280;48003;52.084;5.224;2023-04-08T02:07:47;102361.0;;;10.78;86.08
36834;BME280;48003;52.084;5.224;2023-04-08T02:11:01;102361.0;;;10.76;86.29
36834;BME280;48003;52.084;5.224;2023-04-08T02:12:37;102360.0;;;10.76;86.0
36834;BME280;48003;52.084;5.224;2023-04-08T02:14:15;102361.0;;;10.76;85.87
36834;BME280;48003;52.084;5.224;2023-04-08T02:17:43;102364.0;;;10.74;85.98
36834;BME280;48003;52.084;5.224;2023-04-08T02:19:24;102365.0;;;10.69;86.0
36834;BME280;48003;52.084;5.224;2023-04-08T02:21:08;102365.0;;;10.67;85.95
36834;BME280;48003;52.084;5.224;2023-04-08T02:22:52;102361.0;;;10.66;86.15
36834;BME280;48003;52.084;5.224;2023-04-08T02:24:40;102366.0;;;10.63;86.19
36834;BME280;48003;52.084;5.224;2023-04-08T02:27:58;102361.0;;;10.62;86.08
36834;BME280;48003;52.084;5.224;2023-04-08T02:29:39;102366.0;;;10.6;86.35
36834;BME280;48003;52.084;5.224;2023-04-08T02:31:17;102365.0;;;10.55;86.31
36834;BME280;48003;52.084;5.224;2023-04-08T02:32:56;102372.0;;;10.61;85.43
36834;BME280;48003;52.084;5.224;2023-04-08T02:36:11;102365.0;;;10.56;85.0
36834;BME280;48003;52.084;5.224;2023-04-08T02:37:49;102369.0;;;10.53;85.48
36834;BME280;48003;52.084;5.224;2023-04-08T02:39:30;102372.0;;;10.49;85.67
36834;BME280;48003;52.084;5.224;2023-04-08T02:41:06;102371.0;;;10.46;86.2
36834;BME280;48003;52.084;5.224;2023-04-08T02:44:18;102373.0;;;10.42;86.38
36834;BME280;48003;52.084;5.224;2023-04-08T02:45:55;102370.0;;;10.44;86.61
36834;BME280;48003;52.084;5.224;2023-04-08T02:47:31;102369.0;;;10.45;86.49
36834;BME280;48003;52.084;5.224;2023-04-08T02:50:43;102377.0;;;10.45;86.22
36834;BME280;48003;52.084;5.224;2023-04-08T02:52:19;102378.0;;;10.42;86.38
36834;BME280;48003;52.084;5.224;2023-04-08T02:53:55;102380.0;;;10.41;86.63
36834;BME280;48003;52.084;5.224;2023-04-08T02:57:08;102383.0;;;10.43;86.07
36834;BME280;48003;52.084;5.224;2023-04-08T02:58:44;102385.0;;;10.44;86.18
36834;BME280;48003;52.084;5.224;2023-04-08T03:00:20;102387.0;;;10.47;85.83
36834;BME280;48003;52.084;5.224;2023-04-08T03:01:56;102389.0;;;10.46;85.64
36834;BME280;48003;52.084;5.224;2023-04-08T03:05:09;102393.0;;;10.45;85.57
36834;BME280;48003;52.084;5.224;2023-04-08T03:06:45;102393.0;;;10.44;85.54
36834;BME280;48003;52.084;5.224;2023-04-08T03:08:22;102391.0;;;10.41;85.62
36834;BME280;48003;52.084;5.224;2023-04-08T03:11:35;102390.0;;;10.39;85.6
36834;BME280;48003;52.084;5.224;2023-04-08T03:13:11;102392.0;;;10.38;85.52
36834;BME280;48003;52.084;5.224;2023-04-08T03:14:47;102396.0;;;10.38;85.2
36834;BME280;48003;52.084;5.224;2023-04-08T03:18:00;102393.0;;;10.34;84.94
36834;BME280;48003;52.084;5.224;2023-04-08T03:19:37;102391.0;;;10.33;84.69
36834;BME280;48003;52.084;5.224;2023-04-08T03:21:13;102390.0;;;10.35;84.58
36834;BME280;48003;52.084;5.224;2023-04-08T03:22:49;102393.0;;;10.34;84.5
36834;BME280;48003;52.084;5.224;2023-04-08T03:26:01;102390.0;;;10.23;84.52
36834;BME280;48003;52.084;5.224;2023-04-08T03:27:37;102392.0;;;10.17;84.77
36834;BME280;48003;52.084;5.224;2023-04-08T03:29:14;102394.0;;;10.17;85.5
36834;BME280;48003;52.084;5.224;2023-04-08T03:32:26;102397.0;;;10.19;85.96
36834;BME280;48003;52.084;5.224;2023-04-08T03:34:02;102395.0;;;10.18;86.21
36834;BME280;48003;52.084;5.224;2023-04-08T03:35:38;102397.0;;;10.17;86.32
36834;BME280;48003;52.084;5.224;2023-04-08T03:38:49;102395.0;;;10.18;86.19
36834;BME280;48003;52.084;5.224;2023-04-08T03:40:26;102396.0;;;10.21;86.39
36834;BME280;48003;52.084;5.224;2023-04-08T03:42:02;102396.0;;;10.22;86.48
36834;BME280;48003;52.084;5.224;2023-04-08T03:45:14;102401.0;;;10.23;86.51
36834;BME280;48003;52.084;5.224;2023-04-08T03:46:50;102400.0;;;10.23;86.21
36834;BME280;48003;52.084;5.224;2023-04-08T03:48:26;102398.0;;;10.23;86.42
36834;BME280;48003;52.084;5.224;2023-04-08T03:50:03;102402.0;;;10.21;86.23
36834;BME280;48003;52.084;5.224;2023-04-08T03:53:15;102406.0;;;10.23;86.27
36834;BME280;48003;52.084;5.224;2023-04-08T03:54:51;102408.0;;;10.24;86.3
36834;BME280;48003;52.084;5.224;2023-04-08T03:56:27;102411.99999999999;;;10.3;85.79
36834;BME280;48003;52.084;5.224;2023-04-08T03:59:39;102408.99999999999;;;10.25;85.57
36834;BME280;48003;52.084;5.224;2023-04-08T04:01:15;102417.0;;;10.26;85.25
36834;BME280;48003;52.084;5.224;2023-04-08T04:02:52;102417.0;;;10.26;85.19
36834;BME280;48003;52.084;5.224;2023-04-08T04:06:04;102416.00000000001;;;10.22;85.25
36834;BME280;48003;52.084;5.224;2023-04-08T04:07:40;102417.0;;;10.18;85.31
36834;BME280;48003;52.084;5.224;2023-04-08T04:09:16;102418.0;;;10.18;85.2
36834;BME280;48003;52.084;5.224;2023-04-08T04:12:28;102420.0;;;10.14;85.95
36834;BME280;48003;52.084;5.224;2023-04-08T04:14:05;102418.0;;;10.13;86.27
36834;BME280;48003;52.084;5.224;2023-04-08T04:15:41;102422.0;;;10.14;86.19
36834;BME280;48003;52.084;5.224;2023-04-08T04:17:17;102425.0;;;10.11;86.45
36834;BME280;48003;52.084;5.224;2023-04-08T04:20:29;102426.0;;;10.09;86.63
36834;BME280;48003;52.084;5.224;2023-04-08T04:22:06;102428.0;;;10.09;86.81
36834;BME280;48003;52.084;5.224;2023-04-08T04:23:41;102429.0;;;10.11;86.48
36834;BME280;48003;52.084;5.224;2023-04-08T04:26:54;102432.0;;;10.09;86.54
36834;BME280;48003;52.084;5.224;2023-04-08T04:28:30;102438.00000000001;;;10.13;86.39
36834;BME280;48003;52.084;5.224;2023-04-08T04:30:07;102442.0;;;10.09;86.76
36834;BME280;48003;52.084;5.224;2023-04-08T04:33:19;102449.0;;;10.09;86.78
36834;BME280;48003;52.084;5.224;2023-04-08T04:34:55;102449.0;;;10.15;86.59
36834;BME280;48003;52.084;5.224;2023-04-08T04:36:32;102445.0;;;10.14;86.43
36834;BME280;48003;52.084;5.224;2023-04-08T04:38:08;102449.0;;;10.15;86.27
36834;BME280;48003;52.084;5.224;2023-04-08T04:41:20;102451.0;;;10.15;86.29
36834;BME280;48003;52.084;5.224;2023-04-08T04:42:56;102454.0;;;10.09;86.63
36834;BME280;48003;52.084;5.224;2023-04-08T04:44:32;102458.99999999999;;;10.14;86.68
36834;BME280;48003;52.084;5.224;2023-04-08T04:47:44;102458.99999999999;;;10.14;85.97
36834;BME280;48003;52.084;5.224;2023-04-08T04:49:21;102459.99999999999;;;10.17;85.32
36834;BME280;48003;52.084;5.224;2023-04-08T04:50:58;102458.0;;;10.14;85.8
36834;BME280;48003;52.084;5.224;2023-04-08T04:54:12;102464.00000000001;;;10.14;86.27
36834;BME280;48003;52.084;5.224;2023-04-08T04:55:49;102467.0;;;10.15;86.16
36834;BME280;48003;52.084;5.224;2023-04-08T04:57:25;102463.00000000001;;;10.13;86.45
36834;BME280;48003;52.084;5.224;2023-04-08T05:00:38;102468.0;;;10.14;86.37
36834;BME280;48003;52.084;5.224;2023-04-08T05:02:14;102467.0;;;10.14;86.25
36834;BME280;48003;52.084;5.224;2023-04-08T05:03:51;102469.0;;;10.14;86.28
36834;BME280;48003;52.084;5.224;2023-04-08T05:05:27;102467.0;;;10.14;86.51
36834;BME280;48003;52.084;5.224;2023-04-08T05:08:39;102465.00000000001;;;10.14;86.49
36834;BME280;48003;52.084;5.224;2023-04-08T05:10:16;102464.00000000001;;;10.16;86.48
36834;BME280;48003;52.084;5.224;2023-04-08T05:11:52;102469.0;;;10.13;86.87
36834;BME280;48003;52.084;5.224;2023-04-08T05:15:05;102471.0;;;10.17;86.4
36834;BME280;48003;52.084;5.224;2023-04-08T05:16:41;102473.0;;;10.19;86.45
36834;BME280;48003;52.084;5.224;2023-04-08T05:18:17;102471.0;;;10.17;86.46
36834;BME280;48003;52.084;5.224;2023-04-08T05:21:30;102471.0;;;10.17;86.4
36834;BME280;48003;52.084;5.224;2023-04-08T05:23:06;102473.0;;;10.16;86.5
36834;BME280;48003;52.084;5.224;2023-04-08T05:24:42;102476.0;;;10.13;86.35
36834;BME280;48003;52.084;5.224;2023-04-08T05:26:18;102476.0;;;10.11;86.38
36834;BME280;48003;52.084;5.224;2023-04-08T05:29:31;102479.0;;;10.13;86.55
36834;BME280;48003;52.084;5.224;2023-04-08T05:31:07;102482.0;;;10.16;86.31
36834;BME280;48003;52.084;5.224;2023-04-08T05:32:43;102486.99999999999;;;10.16;85.8
36834;BME280;48003;52.084;5.224;2023-04-08T05:35:55;102491.00000000001;;;10.17;85.53
36834;BME280;48003;52.084;5.224;2023-04-08T05:37:31;102489.00000000001;;;10.16;84.86
36834;BME280;48003;52.084;5.224;2023-04-08T05:39:07;102494.0;;;10.14;84.48
36834;BME280;48003;52.084;5.224;2023-04-08T05:42:20;102492.0;;;10.05;83.76
36834;BME280;48003;52.084;5.224;2023-04-08T05:43:56;102491.00000000001;;;10.0;83.76
36834;BME280;48003;52.084;5.224;2023-04-08T05:45:32;102497.0;;;9.98;84.11
36834;BME280;48003;52.084;5.224;2023-04-08T05:48:44;102497.0;;;9.98;84.31
36834;BME280;48003;52.084;5.224;2023-04-08T05:50:20;102503.0;;;9.92;84.42
36834;BME280;48003;52.084;5.224;2023-04-08T05:51:56;102506.0;;;9.9;85.17
36834;BME280;48003;52.084;5.224;2023-04-08T05:53:32;102506.0;;;9.89;85.57
36834;BME280;48003;52.084;5.224;2023-04-08T05:56:45;102508.0;;;9.9;85.6
36834;BME280;48003;52.084;5.224;2023-04-08T05:58:21;102513.00000000001;;;9.91;85.49
36834;BME280;48003;52.084;5.224;2023-04-08T05:59:57;102513.00000000001;;;9.89;85.48
36834;BME280;48003;52.084;5.224;2023-04-08T06:03:09;102517.0;;;9.94;85.36
36834;BME280;48003;52.084;5.224;2023-04-08T06:04:46;102516.00000000001;;;9.96;85.13
36834;BME280;48003;52.084;5.224;2023-04-08T06:06:22;102517.0;;;9.97;85.1
36834;BME280;48003;52.084;5.224;2023-04-08T06:09:34;102517.0;;;9.97;84.99
36834;BME280;48003;52.084;5.224;2023-04-08T06:11:10;102517.0;;;9.9;85.01
36834;BME280;48003;52.084;5.224;2023-04-08T06:12:46;102515.00000000001;;;9.9;84.75
36834;BME280;48003;52.084;5.224;2023-04-08T06:14:24;102517.0;;;9.92;84.34
36834;BME280;48003;52.084;5.224;2023-04-08T06:17:46;102519.0;;;9.92;83.95
36834;BME280;48003;52.084;5.224;2023-04-08T06:19:22;102521.0;;;9.89;83.74
36834;BME280;48003;52.084;5.224;2023-04-08T06:20:58;102517.0;;;9.86;83.11
36834;BME280;48003;52.084;5.224;2023-04-08T06:24:10;102521.0;;;9.86;83.26
36834;BME280;48003;52.084;5.224;2023-04-08T06:25:46;102525.0;;;9.83;83.3
36834;BME280;48003;52.084;5.224;2023-04-08T06:27:22;102528.0;;;9.81;83.59
36834;BME280;48003;52.084;5.224;2023-04-08T06:30:35;102533.99999999999;;;9.81;83.6
36834;BME280;48003;52.084;5.224;2023-04-08T06:32:11;102532.0;;;9.78;82.58
36834;BME280;48003;52.084;5.224;2023-04-08T06:33:47;102541.00000000001;;;9.77;82.57
36834;BME280;48003;52.084;5.224;2023-04-08T06:35:23;102543.0;;;9.78;83.18
36834;BME280;48003;52.084;5.224;2023-04-08T06:38:36;102548.0;;;9.86;83.04
36834;BME280;48003;52.084;5.224;2023-04-08T06:40:12;102552.0;;;9.89;82.66
36834;BME280;48003;52.084;5.224;2023-04-08T06:41:48;102555.0;;;9.89;82.97
36834;BME280;48003;52.084;5.224;2023-04-08T06:45:00;102558.99999999999;;;9.84;83.21
36834;BME280;48003;52.084;5.224;2023-04-08T06:46:36;102555.0;;;9.83;83.43
36834;BME280;48003;52.084;5.224;2023-04-08T06:48:12;102557.0;;;9.89;83.22
36834;BME280;48003;52.084;5.224;2023-04-08T06:51:25;102558.99999999999;;;9.91;83.44
36834;BME280;48003;52.084;5.224;2023-04-08T06:53:01;102557.0;;;9.9;83.34
36834;BME280;48003;52.084;5.224;2023-04-08T06:54:37;102558.0;;;9.93;82.75
36834;BME280;48003;52.084;5.224;2023-04-08T06:56:13;102564.00000000001;;;9.89;82.37
36834;BME280;48003;52.084;5.224;2023-04-08T06:59:26;102564.00000000001;;;9.91;82.95
36834;BME280;48003;52.084;5.224;2023-04-08T07:01:02;102567.0;;;9.94;83.21
36834;BME280;48003;52.084;5.224;2023-04-08T07:02:38;102572.0;;;9.96;83.44
36834;BME280;48003;52.084;5.224;2023-04-08T07:05:51;102575.0;;;9.97;83.67
36834;BME280;48003;52.084;5.224;2023-04-08T07:07:27;102576.0;;;10.06;82.49
36834;BME280;48003;52.084;5.224;2023-04-08T07:09:03;102575.0;;;10.11;80.83
36834;BME280;48003;52.084;5.224;2023-04-08T07:12:15;102583.0;;;10.14;80.88
36834;BME280;48003;52.084;5.224;2023-04-08T07:13:51;102586.99999999999;;;10.11;80.91
36834;BME280;48003;52.084;5.224;2023-04-08T07:15:27;102592.0;;;10.11;81.17
36834;BME280;48003;52.084;5.224;2023-04-08T07:18:40;102588.00000000001;;;10.16;81.27
36834;BME280;48003;52.084;5.224;2023-04-08T07:20:16;102583.99999999999;;;10.23;80.62
36834;BME280;48003;52.084;5.224;2023-04-08T07:21:52;102590.00000000001;;;10.3;80.19
36834;BME280;48003;52.084;5.224;2023-04-08T07:23:28;102591.00000000001;;;10.34;79.19
36834;BME280;48003;52.084;5.224;2023-04-08T07:26:42;102593.0;;;10.39;78.55
36834;BME280;48003;52.084;5.224;2023-04-08T07:28:18;102593.0;;;10.37;78.33
36834;BME280;48003;52.084;5.224;2023-04-08T07:29:54;102600.0;;;10.4;78.89
36834;BME280;48003;52.084;5.224;2023-04-08T07:33:06;102602.0;;;10.42;78.08
36834;BME280;48003;52.084;5.224;2023-04-08T07:34:43;102605.0;;;10.47;78.37
36834;BME280;48003;52.084;5.224;2023-04-08T07:36:19;102601.0;;;10.52;76.77
36834;BME280;48003;52.084;5.224;2023-04-08T07:39:31;102601.0;;;10.61;76.7
36834;BME280;48003;52.084;5.224;2023-04-08T07:41:07;102602.0;;;10.61;75.83
36834;BME280;48003;52.084;5.224;2023-04-08T07:42:43;102604.0;;;10.58;76.41
36834;BME280;48003;52.084;5.224;2023-04-08T07:44:19;102604.0;;;10.66;76.41
36834;BME280;48003;52.084;5.224;2023-04-08T07:47:35;102606.0;;;10.61;75.72
36834;BME280;48003;52.084;5.224;2023-04-08T07:49:11;102608.99999999999;;;10.68;75.52
36834;BME280;48003;52.084;5.224;2023-04-08T07:50:47;102606.0;;;10.73;75.02
36834;BME280;48003;52.084;5.224;2023-04-08T07:53:59;102616.00000000001;;;10.79;75.27
36834;BME280;48003;52.084;5.224;2023-04-08T07:55:36;102617.0;;;10.86;74.91
36834;BME280;48003;52.084;5.224;2023-04-08T07:57:12;102613.00000000001;;;10.9;74.58
36834;BME280;48003;52.084;5.224;2023-04-08T08:00:24;102617.0;;;11.0;74.44
36834;BME280;48003;52.084;5.224;2023-04-08T08:02:00;102616.00000000001;;;11.01;74.22
36834;BME280;48003;52.084;5.224;2023-04-08T08:03:36;102615.00000000001;;;11.03;74.48
36834;BME280;48003;52.084;5.224;2023-04-08T08:06:49;102617.0;;;11.05;74.5
36834;BME280;48003;52.084;5.224;2023-04-08T08:08:25;102616.00000000001;;;11.16;74.52
36834;BME280;48003;52.084;5.224;2023-04-08T08:10:01;102619.0;;;11.14;74.24
36834;BME280;48003;52.084;5.224;2023-04-08T08:11:37;102621.0;;;11.11;73.73
36834;BME280;48003;52.084;5.224;2023-04-08T08:14:50;102619.0;;;11.17;73.86
36834;BME280;48003;52.084;5.224;2023-04-08T08:16:27;102619.0;;;11.21;72.99
36834;BME280;48003;52.084;5.224;2023-04-08T08:18:03;102620.0;;;11.25;72.33
36834;BME280;48003;52.084;5.224;2023-04-08T08:21:15;102621.0;;;11.25;72.49
36834;BME280;48003;52.084;5.224;2023-04-08T08:22:52;102625.0;;;11.34;72.72
36834;BME280;48003;52.084;5.224;2023-04-08T08:24:28;102620.0;;;11.42;72.75
36834;BME280;48003;52.084;5.224;2023-04-08T08:27:42;102623.0;;;11.47;72.19
36834;BME280;48003;52.084;5.224;2023-04-08T08:29:18;102617.0;;;11.47;71.55
36834;BME280;48003;52.084;5.224;2023-04-08T08:30:54;102618.0;;;11.53;70.59
36834;BME280;48003;52.084;5.224;2023-04-08T08:32:31;102622.0;;;11.62;70.37
36834;BME280;48003;52.084;5.224;2023-04-08T08:35:43;102623.0;;;11.71;70.33
36834;BME280;48003;52.084;5.224;2023-04-08T08:37:19;102618.0;;;11.72;69.5
36834;BME280;48003;52.084;5.224;2023-04-08T08:38:55;102622.0;;;11.78;68.94
36834;BME280;48003;52.084;5.224;2023-04-08T08:42:17;102632.0;;;11.81;68.77
36834;BME280;48003;52.084;5.224;2023-04-08T08:43:55;102627.0;;;11.84;69.27
36834;BME280;48003;52.084;5.224;2023-04-08T08:45:32;102633.0;;;11.94;68.75
36834;BME280;48003;52.084;5.224;2023-04-08T08:47:08;102629.0;;;11.98;68.36
36834;BME280;48003;52.084;5.224;2023-04-08T08:50:21;102629.0;;;12.01;66.98
36834;BME280;48003;52.084;5.224;2023-04-08T08:51:57;102630.0;;;12.06;66.77
36834;BME280;48003;52.084;5.224;2023-04-08T08:53:35;102629.0;;;12.11;67.05
36834;BME280;48003;52.084;5.224;2023-04-08T08:56:48;102633.0;;;12.17;67.16
36834;BME280;48003;52.084;5.224;2023-04-08T08:58:25;102631.0;;;12.26;66.62
36834;BME280;48003;52.084;5.224;2023-04-08T09:00:02;102633.99999999999;;;12.37;66.31
36834;BME280;48003;52.084;5.224;2023-04-08T09:03:15;102639.00000000001;;;12.43;65.58
36834;BME280;48003;52.084;5.224;2023-04-08T09:04:58;102639.00000000001;;;12.47;66.0
36834;BME280;48003;52.084;5.224;2023-04-08T09:06:35;102642.0;;;12.5;65.14
36834;BME280;48003;52.084;5.224;2023-04-08T09:08:22;102648.0;;;12.55;63.04
36834;BME280;48003;52.084;5.224;2023-04-08T09:11:36;102647.0;;;12.64;60.77
36834;BME280;48003;52.084;5.224;2023-04-08T09:13:12;102646.0;;;12.74;61.02
36834;BME280;48003;52.084;5.224;2023-04-08T09:14:48;102654.0;;;12.86;60.47
36834;BME280;48003;52.084;5.224;2023-04-08T09:16:25;102650.0;;;12.85;60.27
36834;BME280;48003;52.084;5.224;2023-04-08T09:19:38;102651.0;;;12.85;59.75
36834;BME280;48003;52.084;5.224;2023-04-08T09:21:15;102651.0;;;12.98;59.19
36834;BME280;48003;52.084;5.224;2023-04-08T09:22:57;102653.0;;;12.98;59.58
36834;BME280;48003;52.084;5.224;2023-04-08T09:26:12;102651.0;;;13.05;58.71
36834;BME280;48003;52.084;5.224;2023-04-08T09:27:50;102650.0;;;13.17;58.19
36834;BME280;48003;52.084;5.224;2023-04-08T09:29:26;102652.0;;;13.16;58.22
36834;BME280;48003;52.084;5.224;2023-04-08T09:31:17;102656.0;;;13.24;57.17
36834;BME280;48003;52.084;5.224;2023-04-08T09:34:31;102649.0;;;13.29;57.52
36834;BME280;48003;52.084;5.224;2023-04-08T09:36:07;102653.0;;;13.37;57.45
36834;BME280;48003;52.084;5.224;2023-04-08T09:37:44;102651.0;;;13.44;57.06
36834;BME280;48003;52.084;5.224;2023-04-08T09:40:57;102653.0;;;13.52;57.28
36834;BME280;48003;52.084;5.224;2023-04-08T09:42:39;102655.0;;;13.74;57.72
36834;BME280;48003;52.084;5.224;2023-04-08T09:44:17;102655.0;;;13.84;57.33
36834;BME280;48003;52.084;5.224;2023-04-08T09:45:54;102659.99999999999;;;13.86;56.3
36834;BME280;48003;52.084;5.224;2023-04-08T09:49:25;102658.0;;;13.88;55.39
36834;BME280;48003;52.084;5.224;2023-04-08T09:51:05;102658.99999999999;;;13.78;53.01
36834;BME280;48003;52.084;5.224;2023-04-08T09:52:43;102658.0;;;13.94;53.04
36834;BME280;48003;52.084;5.224;2023-04-08T09:54:23;102656.0;;;14.06;53.42
36834;BME280;48003;52.084;5.224;2023-04-08T09:56:09;102661.99999999999;;;14.21;53.9
36834;BME280;48003;52.084;5.224;2023-04-08T09:59:30;102661.99999999999;;;14.36;53.69
36834;BME280;48003;52.084;5.224;2023-04-08T10:01:13;102658.99999999999;;;14.4;53.38
36834;BME280;48003;52.084;5.224;2023-04-08T10:02:55;102658.0;;;14.49;53.22
36834;BME280;48003;52.084;5.224;2023-04-08T10:04:37;102659.99999999999;;;14.5;53.86
36834;BME280;48003;52.084;5.224;2023-04-08T10:07:55;102657.0;;;14.55;53.18
36834;BME280;48003;52.084;5.224;2023-04-08T10:09:31;102656.0;;;14.58;52.75
36834;BME280;48003;52.084;5.224;2023-04-08T10:11:08;102655.0;;;14.7;52.1
36834;BME280;48003;52.084;5.224;2023-04-08T10:14:21;102655.0;;;14.63;51.58
36834;BME280;48003;52.084;5.224;2023-04-08T10:16:29;102653.0;;;14.77;51.67
36834;BME280;48003;52.084;5.224;2023-04-08T10:18:37;102654.0;;;14.84;51.0
36834;BME280;48003;52.084;5.224;2023-04-08T10:20:40;102653.0;;;14.82;50.49
36834;BME280;48003;52.084;5.224;2023-04-08T10:22:49;102654.0;;;14.91;50.16
36834;BME280;48003;52.084;5.224;2023-04-08T10:24:25;102658.99999999999;;;14.93;49.66
36834;BME280;48003;52.084;5.224;2023-04-08T10:26:29;102652.0;;;14.95;48.93
36834;BME280;48003;52.084;5.224;2023-04-08T10:28:23;102656.0;;;15.09;50.37
36834;BME280;48003;52.084;5.224;2023-04-08T10:29:59;102658.0;;;15.2;50.03
36834;BME280;48003;52.084;5.224;2023-04-08T10:33:16;102654.0;;;15.29;50.79
36834;BME280;48003;52.084;5.224;2023-04-08T10:34:54;102655.0;;;15.38;50.26
36834;BME280;48003;52.084;5.224;2023-04-08T10:36:30;102650.0;;;15.51;52.17
36834;BME280;48003;52.084;5.224;2023-04-08T10:38:07;102646.0;;;15.55;51.37
36834;BME280;48003;52.084;5.224;2023-04-08T10:41:24;102643.0;;;15.62;50.54
36834;BME280;48003;52.084;5.224;2023-04-08T10:43:00;102639.00000000001;;;15.56;50.38
36834;BME280;48003;52.084;5.224;2023-04-08T10:44:36;102632.0;;;15.56;50.18
36834;BME280;48003;52.084;5.224;2023-04-08T10:47:48;102634.99999999999;;;15.63;50.3
36834;BME280;48003;52.084;5.224;2023-04-08T10:49:31;102633.0;;;15.75;51.42
36834;BME280;48003;52.084;5.224;2023-04-08T10:51:08;102634.99999999999;;;15.75;48.85
36834;BME280;48003;52.084;5.224;2023-04-08T10:52:46;102632.0;;;15.84;50.25